CheckWX is a tool to help pilots better visualize weather data.  It is not intended as a substitute for an official pre-flight weather briefing.

21:38:12 UTC

EKVG METAR
Vagar Airport
Vagar, Denmark
Current

18 mins ago

EKVG 052120Z AUTO 13016G26KT 9999 -RA OVC029/// 09/06 Q0991
Observed
Apr-5 @ 21:20 UTC
Wind
  • 130° at 16 KTS
  • Gusting to 26 KTS
Visibility
10,000+ meters
Flight Rules
MVFR
Conditions
Light Rain
Cloud Levels
  • Overcast at 2,900' AGL
Temperature
C / 48°F
Dewpoint
C / 43°F
Humidity
82%
Altimeter
29.26" Hg
Pressure
990.92 hPa
Previous

48 mins ago

EKVG 052050Z AUTO 14019KT 110V170 9999 BKN028/// BKN043/// 10/06 Q0992
Observed
Apr-5 @ 20:50 UTC
Wind
  • 140° at 19 KTS
Visibility
10,000+ meters
Flight Rules
MVFR
Cloud Levels
  • Broken at 2,800' AGL
  • Broken at 4,300' AGL
Temperature
10°C / 50°F
Dewpoint
C / 43°F
Humidity
76%
Altimeter
29.29" Hg
Pressure
991.92 hPa
Previous

1 hour ago

EKVG 052020Z AUTO 13015G26KT 100V160 9999 -RA BKN050/// 09/05 Q0992
Observed
Apr-5 @ 20:20 UTC
Wind
  • 130° at 15 KTS
  • Gusting to 26 KTS
Visibility
10,000+ meters
Flight Rules
VFR
Conditions
Light Rain
Cloud Levels
  • Broken at 5,000' AGL
Temperature
C / 48°F
Dewpoint
C / 41°F
Humidity
76%
Altimeter
29.29" Hg
Pressure
991.92 hPa